createdAt,value
2019-05-17T00:00:39.230Z,10.83
2019-05-17T00:02:46.765Z,11.57
2019-05-17T00:04:56.238Z,12.33
2019-05-17T00:07:03.560Z,11.00
2019-05-17T00:09:11.251Z,12.53
2019-05-17T00:11:18.704Z,10.43
2019-05-17T00:13:26.854Z,13.90
2019-05-17T00:15:36.643Z,12.77
2019-05-17T00:17:43.538Z,14.10
2019-05-17T00:19:51.040Z,12.47
2019-05-17T00:21:58.578Z,12.33
2019-05-17T00:24:06.786Z,13.23
2019-05-17T00:26:16.433Z,12.67
2019-05-17T00:28:23.611Z,14.27
2019-05-17T00:30:31.085Z,11.60
2019-05-17T00:32:38.578Z,9.40
2019-05-17T00:34:47.019Z,9.50
2019-05-17T00:36:54.611Z,11.87
2019-05-17T00:39:02.075Z,9.33
2019-05-17T00:41:09.701Z,8.80
2019-05-17T00:43:17.192Z,7.90
2019-05-17T00:45:26.595Z,10.10
2019-05-17T00:47:33.684Z,7.70
2019-05-17T00:49:41.141Z,12.27
2019-05-17T00:51:49.100Z,9.20
2019-05-17T00:53:56.615Z,11.67
2019-05-17T00:56:06.480Z,8.83
2019-05-17T00:58:13.415Z,9.97
2019-05-17T01:00:21.304Z,10.30
2019-05-17T01:02:28.757Z,11.83
2019-05-17T01:04:36.905Z,11.70
2019-05-17T01:06:46.906Z,11.80
2019-05-17T01:09:01.579Z,11.47
2019-05-17T01:11:03.843Z,12.10
2019-05-17T01:13:11.375Z,9.87
2019-05-17T01:15:20.435Z,8.70
2019-05-17T01:17:27.838Z,9.67
2019-05-17T01:19:36.554Z,11.47
2019-05-17T01:21:44.676Z,10.57
2019-05-17T01:23:52.122Z,11.23
2019-05-17T01:25:59.616Z,11.57
2019-05-17T01:28:07.729Z,10.67
2019-05-17T01:30:17.744Z,11.87
2019-05-17T01:32:26.656Z,11.67
2019-05-17T01:34:34.347Z,13.00
2019-05-17T01:36:41.804Z,13.03
2019-05-17T01:38:49.291Z,11.30
2019-05-17T01:40:56.730Z,13.22
2019-05-17T01:43:04.134Z,13.07
2019-05-17T01:45:12.310Z,15.30
2019-05-17T01:47:19.795Z,14.53
2019-05-17T01:49:27.238Z,13.33
2019-05-17T01:51:36.881Z,9.80
2019-05-17T01:53:43.984Z,11.23
2019-05-17T01:55:51.378Z,15.57
2019-05-17T01:57:58.833Z,16.80
2019-05-17T02:00:07.676Z,13.70
2019-05-17T02:02:17.923Z,13.97
2019-05-17T02:04:26.832Z,12.97
2019-05-17T02:06:36.422Z,11.43
2019-05-17T02:08:43.464Z,11.77
2019-05-17T02:10:50.950Z,14.03
2019-05-17T02:12:58.370Z,12.83
2019-05-17T02:15:07.007Z,13.30
2019-05-17T02:17:14.612Z,10.97
2019-05-17T02:19:21.995Z,11.17
2019-05-17T02:21:29.466Z,13.13
2019-05-17T02:23:37.367Z,12.87
2019-05-17T02:25:47.102Z,11.83
2019-05-17T02:27:54.125Z,14.53
2019-05-17T02:30:02.767Z,13.40
2019-05-17T02:32:12.827Z,14.47
2019-05-17T02:34:23.056Z,10.17
2019-05-17T02:36:29.038Z,11.30
2019-05-17T02:38:36.353Z,14.27
2019-05-17T02:40:43.794Z,15.63
2019-05-17T02:42:53.564Z,11.17
2019-05-17T02:45:03.132Z,10.67
2019-05-17T02:47:09.776Z,12.30
2019-05-17T02:49:17.180Z,11.73
2019-05-17T02:51:24.603Z,14.97
2019-05-17T02:53:33.464Z,17.83
2019-05-17T02:55:43.521Z,16.90
2019-05-17T02:57:52.937Z,37.77
2019-05-17T02:59:59.542Z,25.03
2019-05-17T03:02:07.118Z,15.73
2019-05-17T03:04:14.929Z,11.10
2019-05-17T03:06:22.879Z,12.83
2019-05-17T03:08:33.657Z,9.83
2019-05-17T03:10:42.980Z,10.53
2019-05-17T03:12:48.837Z,12.40
2019-05-17T03:14:56.210Z,9.20
2019-05-17T03:17:03.765Z,9.13
2019-05-17T03:19:13.043Z,9.47
2019-05-17T03:21:22.893Z,9.43
2019-05-17T03:23:32.739Z,13.17
2019-05-17T03:25:39.097Z,8.10
2019-05-17T03:27:46.593Z,10.77
2019-05-17T03:29:54.026Z,11.60
2019-05-17T03:32:08.821Z,11.47
2019-05-17T03:34:17.064Z,11.93
2019-05-17T03:36:26.053Z,9.40
2019-05-17T03:38:32.658Z,9.87
2019-05-17T03:41:07.205Z,10.33
2019-05-17T03:42:53.561Z,8.40
2019-05-17T03:45:02.613Z,15.20
2019-05-17T03:47:08.669Z,7.57
2019-05-17T03:49:16.182Z,8.23
2019-05-17T03:51:23.689Z,7.97
2019-05-17T03:53:33.517Z,9.57
2019-05-17T03:55:42.970Z,12.67
2019-05-17T03:57:52.986Z,10.67
2019-05-17T03:59:58.671Z,10.27
2019-05-17T04:02:06.136Z,10.77
2019-05-17T04:04:13.801Z,9.20
2019-05-17T04:06:23.901Z,8.93
2019-05-17T04:08:33.226Z,10.60
2019-05-17T04:10:42.389Z,12.90
2019-05-17T04:12:48.844Z,15.37
2019-05-17T04:14:56.308Z,19.37
2019-05-17T04:17:03.839Z,14.70
2019-05-17T04:19:13.982Z,14.83
2019-05-17T04:21:23.184Z,12.30
2019-05-17T04:23:29.689Z,13.77
2019-05-17T04:25:38.801Z,15.13
2019-05-17T04:27:46.264Z,15.40
2019-05-17T04:29:53.702Z,15.07
2019-05-17T04:32:04.034Z,13.77
2019-05-17T04:34:13.226Z,13.67
2019-05-17T04:36:22.259Z,12.20
2019-05-17T04:38:28.803Z,12.27
2019-05-17T04:40:36.278Z,13.40
2019-05-17T04:42:44.532Z,12.73
2019-05-17T04:44:52.847Z,18.90
2019-05-17T04:47:03.188Z,14.30
2019-05-17T04:49:09.650Z,15.43
2019-05-17T04:51:17.120Z,13.17
2019-05-17T04:53:24.759Z,14.57
2019-05-17T04:55:34.072Z,13.77
2019-05-17T04:57:43.755Z,13.07
2019-05-17T04:59:52.370Z,12.07
2019-05-17T05:02:02.950Z,12.77
2019-05-17T05:04:09.395Z,12.90
2019-05-17T05:06:16.926Z,12.27
2019-05-17T05:08:24.415Z,13.47
2019-05-17T05:10:33.818Z,14.00
2019-05-17T05:12:43.611Z,11.40
2019-05-17T05:14:52.285Z,15.33
2019-05-17T05:17:02.482Z,13.60
2019-05-17T05:19:09.236Z,14.57
2019-05-17T05:21:16.743Z,15.97
2019-05-17T05:23:24.257Z,16.77
2019-05-17T05:25:32.303Z,18.47
2019-05-17T05:27:42.286Z,22.83
2019-05-17T05:29:49.323Z,19.80
2019-05-17T05:31:57.881Z,17.40
2019-05-17T05:34:05.463Z,16.73
2019-05-17T05:36:12.883Z,18.87
2019-05-17T05:38:21.595Z,15.67
2019-05-17T05:40:29.489Z,17.60
2019-05-17T05:42:36.886Z,17.60
2019-05-17T05:44:44.363Z,21.60
2019-05-17T05:46:51.784Z,18.93
2019-05-17T05:49:05.312Z,20.20
2019-05-17T05:51:13.712Z,24.00
2019-05-17T05:53:21.922Z,25.77
2019-05-17T05:55:32.240Z,23.17
2019-05-17T05:57:41.981Z,23.10
2019-05-17T05:59:48.910Z,23.73
2019-05-17T06:01:56.346Z,23.57
2019-05-17T06:04:03.917Z,26.40
2019-05-17T06:06:12.328Z,22.10
2019-05-17T06:08:22.515Z,26.27
2019-05-17T06:10:29.561Z,32.07
2019-05-17T06:12:36.977Z,37.33
2019-05-17T06:14:44.881Z,33.03
2019-05-17T06:16:52.501Z,33.93
2019-05-17T06:19:02.184Z,36.20
2019-05-17T06:21:09.359Z,33.90
2019-05-17T06:23:16.860Z,34.37
2019-05-17T06:25:24.411Z,33.77
2019-05-17T06:27:32.899Z,35.03
2019-05-17T06:29:41.508Z,30.17
2019-05-17T06:31:51.734Z,35.67
2019-05-17T06:33:58.401Z,36.50
2019-05-17T06:36:05.949Z,37.10
2019-05-17T06:38:13.482Z,43.87
2019-05-17T06:40:21.899Z,39.53
2019-05-17T06:42:38.249Z,43.27
2019-05-17T06:44:38.660Z,41.93
2019-05-17T06:46:46.282Z,42.63
2019-05-17T06:48:53.730Z,42.63
2019-05-17T06:51:02.585Z,42.50
2019-05-17T06:53:12.241Z,52.53
2019-05-17T06:55:20.945Z,44.65
2019-05-17T06:57:28.670Z,47.08
2019-05-17T06:59:36.381Z,49.63
2019-05-17T07:01:43.952Z,53.45
2019-05-17T07:03:52.216Z,45.10
2019-05-17T07:06:01.523Z,47.80
2019-05-17T07:08:10.900Z,48.90
2019-05-17T07:10:19.649Z,47.17
2019-05-17T07:12:27.858Z,45.60
2019-05-17T07:14:35.793Z,43.25
2019-05-17T07:16:43.474Z,46.97
2019-05-17T07:18:51.483Z,44.07
2019-05-17T07:21:02.879Z,43.40
2019-05-17T07:23:10.752Z,43.83
2019-05-17T07:25:19.799Z,38.50
2019-05-17T07:27:40.663Z,38.50
2019-05-17T07:29:36.925Z,42.50
2019-05-17T07:31:45.547Z,38.70
2019-05-17T07:33:53.263Z,37.67
2019-05-17T07:36:00.859Z,38.83
2019-05-17T07:38:10.628Z,40.47
2019-05-17T07:40:19.870Z,41.10
2019-05-17T07:42:29.727Z,39.03
2019-05-17T07:44:37.254Z,41.23
2019-05-17T07:46:44.756Z,39.13
2019-05-17T07:48:52.416Z,42.97
2019-05-17T07:51:00.294Z,41.80
2019-05-17T07:53:10.406Z,43.20
2019-05-17T07:55:20.767Z,50.23
2019-05-17T07:57:29.789Z,47.70
2019-05-17T07:59:36.655Z,53.17
2019-05-17T08:01:44.426Z,42.03
2019-05-17T08:03:52.129Z,47.70
2019-05-17T08:06:00.147Z,48.80
2019-05-17T08:08:09.692Z,45.00
2019-05-17T08:10:20.350Z,48.63
2019-05-17T08:12:27.629Z,45.43
2019-05-17T08:14:35.507Z,48.37
2019-05-17T08:16:43.101Z,46.57
2019-05-17T08:18:50.753Z,48.53
2019-05-17T08:20:59.755Z,49.17
2019-05-17T08:23:07.418Z,48.98
2019-05-17T08:25:15.445Z,57.05
2019-05-17T08:27:22.904Z,52.85
2019-05-17T08:29:30.790Z,50.87
2019-05-17T08:31:40.432Z,44.93
2019-05-17T08:33:49.681Z,41.80
2019-05-17T08:35:56.941Z,41.83
2019-05-17T08:38:04.559Z,38.63
2019-05-17T08:40:15.267Z,38.87
2019-05-17T08:42:25.143Z,40.88
2019-05-17T08:44:31.789Z,33.00
2019-05-17T08:46:39.644Z,33.40
2019-05-17T08:48:49.378Z,31.02
2019-05-17T08:50:56.925Z,26.48
2019-05-17T08:53:04.876Z,26.42
2019-05-17T08:55:12.610Z,22.13
2019-05-17T08:57:20.642Z,22.40
2019-05-17T08:59:29.621Z,21.85
2019-05-17T09:01:40.960Z,26.40
2019-05-17T09:03:46.873Z,18.82
2019-05-17T09:05:54.396Z,24.80
2019-05-17T09:08:01.973Z,20.88
2019-05-17T09:10:10.477Z,17.80
2019-05-17T09:12:20.485Z,21.40
2019-05-17T09:14:29.343Z,20.77
2019-05-17T09:16:36.691Z,21.70
2019-05-17T09:18:44.329Z,17.10
2019-05-17T09:20:51.784Z,23.15
2019-05-17T09:23:00.071Z,22.05
2019-05-17T09:25:13.526Z,20.68
2019-05-17T09:27:19.700Z,18.65
2019-05-17T09:29:26.910Z,20.82
2019-05-17T09:31:34.618Z,18.98
2019-05-17T09:33:42.171Z,18.05
2019-05-17T09:35:50.102Z,22.30
2019-05-17T09:38:00.343Z,24.15
2019-05-17T09:40:09.381Z,18.15
2019-05-17T09:42:16.630Z,17.48
2019-05-17T09:44:24.221Z,23.25
2019-05-17T09:46:31.731Z,18.87
2019-05-17T09:48:39.768Z,22.02
2019-05-17T09:50:47.409Z,16.65
2019-05-17T09:52:54.933Z,24.10
2019-05-17T09:55:02.563Z,19.27
2019-05-17T09:57:10.077Z,21.82
2019-05-17T09:59:17.632Z,19.40
2019-05-17T10:01:25.278Z,20.20
2019-05-17T10:03:32.926Z,19.80
2019-05-17T10:05:40.895Z,18.55
2019-05-17T10:07:50.626Z,21.97
2019-05-17T10:09:59.771Z,23.40
2019-05-17T10:12:09.386Z,24.05
2019-05-17T10:14:27.502Z,21.45
2019-05-17T10:16:25.858Z,16.23
2019-05-17T10:18:33.492Z,19.17
2019-05-17T10:20:41.026Z,17.45
2019-05-17T10:22:50.450Z,22.25
2019-05-17T10:25:00.169Z,19.23
2019-05-17T10:27:06.922Z,18.82
2019-05-17T10:29:14.386Z,19.92
2019-05-17T10:31:22.125Z,17.52
2019-05-17T10:33:29.638Z,16.60
2019-05-17T10:35:37.337Z,18.57
2019-05-17T10:37:44.792Z,18.98
2019-05-17T10:39:52.258Z,19.42
2019-05-17T10:41:59.851Z,22.25
2019-05-17T10:44:09.342Z,21.70
2019-05-17T10:46:16.571Z,20.65
2019-05-17T10:48:24.334Z,26.27
2019-05-17T10:50:32.345Z,24.65
2019-05-17T10:52:40.904Z,24.67
2019-05-17T10:54:49.091Z,18.32
2019-05-17T10:56:59.566Z,18.92
2019-05-17T10:59:06.522Z,20.88
2019-05-17T11:01:14.435Z,20.08
2019-05-17T11:03:21.994Z,23.30
2019-05-17T11:05:30.828Z,22.02
2019-05-17T11:07:39.240Z,23.98
2019-05-17T11:09:46.847Z,19.45
2019-05-17T11:11:54.446Z,19.20
2019-05-17T11:14:02.043Z,20.27
2019-05-17T11:16:09.863Z,19.57
2019-05-17T11:18:17.486Z,18.92
2019-05-17T11:20:25.329Z,17.65
2019-05-17T11:22:32.861Z,14.45
2019-05-17T11:24:40.752Z,17.50
2019-05-17T11:26:48.514Z,19.87
2019-05-17T11:28:56.820Z,14.55
2019-05-17T11:31:04.537Z,12.78
2019-05-17T11:33:12.205Z,16.85
2019-05-17T11:35:19.860Z,14.58
2019-05-17T11:37:27.345Z,13.25
2019-05-17T11:39:34.740Z,14.60
2019-05-17T11:41:42.233Z,16.55
2019-05-17T11:43:49.800Z,15.30
2019-05-17T11:45:57.294Z,15.53
2019-05-17T11:48:04.864Z,17.27
2019-05-17T11:50:13.125Z,14.55
2019-05-17T11:52:20.591Z,13.38
2019-05-17T11:54:28.577Z,13.43
2019-05-17T11:56:36.093Z,14.75
2019-05-17T11:58:43.597Z,11.88
2019-05-17T12:00:51.131Z,16.25
2019-05-17T12:02:58.609Z,17.07
2019-05-17T12:05:07.694Z,18.42
2019-05-17T12:07:15.280Z,20.43
2019-05-17T12:09:36.473Z,15.58
2019-05-17T12:11:31.900Z,17.35
2019-05-17T12:13:39.683Z,15.58
2019-05-17T12:15:48.596Z,15.20
2019-05-17T12:17:56.092Z,15.08
2019-05-17T12:20:03.742Z,15.93
2019-05-17T12:22:11.287Z,13.83
2019-05-17T12:24:18.823Z,12.85
2019-05-17T12:26:26.306Z,18.15
2019-05-17T12:28:33.970Z,16.27
2019-05-17T12:30:41.411Z,17.87
2019-05-17T12:32:48.878Z,16.85
2019-05-17T12:34:56.336Z,17.57
2019-05-17T12:37:03.883Z,17.25
2019-05-17T12:39:11.342Z,16.40
2019-05-17T12:41:21.599Z,16.00
2019-05-17T12:43:29.244Z,14.58
2019-05-17T12:45:36.972Z,23.35
2019-05-17T12:47:44.388Z,14.18
2019-05-17T12:49:51.886Z,12.40
2019-05-17T12:51:59.352Z,13.80
2019-05-17T12:54:06.875Z,15.68
2019-05-17T12:56:14.367Z,13.80
2019-05-17T12:58:22.041Z,17.37
2019-05-17T13:00:29.992Z,13.22
2019-05-17T13:02:37.457Z,5.45
2019-05-17T13:04:45.053Z,16.42
2019-05-17T13:06:52.721Z,18.98
2019-05-17T13:09:00.176Z,12.65
2019-05-17T13:11:07.813Z,5.78
2019-05-17T13:13:15.500Z,10.70
2019-05-17T13:15:23.195Z,11.40
2019-05-17T13:17:30.814Z,7.40
2019-05-17T13:19:38.422Z,36.90
2019-05-17T13:21:46.178Z,7.67
2019-05-17T13:23:53.809Z,19.30
2019-05-17T13:26:01.401Z,7.10
2019-05-17T13:28:09.240Z,11.47
2019-05-17T13:30:17.522Z,10.20
2019-05-17T13:32:24.999Z,10.47
2019-05-17T13:34:33.163Z,5.47
2019-05-17T13:36:41.318Z,12.13
2019-05-17T13:38:49.306Z,8.85
2019-05-17T13:40:57.576Z,5.50
2019-05-17T13:43:05.776Z,4.20
2019-05-17T13:45:16.651Z,8.20
2019-05-17T13:47:24.448Z,8.70
2019-05-17T13:49:32.671Z,6.17
2019-05-17T13:51:41.242Z,8.17
2019-05-17T13:53:49.554Z,6.57
2019-05-17T13:55:58.320Z,7.47
2019-05-17T13:58:09.767Z,5.40
2019-05-17T14:00:17.896Z,6.20
2019-05-17T14:02:26.074Z,7.80
2019-05-17T14:04:34.585Z,5.00
2019-05-17T14:06:43.011Z,5.83
2019-05-17T14:08:51.810Z,6.05
2019-05-17T14:11:00.028Z,4.67
2019-05-17T14:13:08.997Z,4.00
2019-05-17T14:15:17.148Z,4.60
2019-05-17T14:17:24.714Z,7.30
2019-05-17T14:19:32.827Z,6.90
2019-05-17T14:21:40.657Z,5.93
2019-05-17T14:23:48.757Z,9.97
2019-05-17T14:25:56.539Z,5.07
2019-05-17T14:28:04.314Z,4.27
2019-05-17T14:30:13.124Z,7.95
2019-05-17T14:32:20.839Z,3.37
2019-05-17T14:34:28.711Z,4.40
2019-05-17T14:36:37.028Z,3.50
2019-05-17T14:38:44.844Z,3.35
2019-05-17T14:41:09.004Z,8.83
2019-05-17T14:43:02.190Z,3.10
2019-05-17T14:45:12.424Z,5.78
2019-05-17T14:47:20.419Z,4.62
2019-05-17T14:49:28.407Z,3.40
2019-05-17T14:51:36.339Z,5.87
2019-05-17T14:53:47.631Z,5.33
2019-05-17T14:55:56.889Z,4.47
2019-05-17T14:58:04.971Z,4.65
2019-05-17T15:00:13.571Z,4.35
2019-05-17T15:02:22.097Z,5.28
2019-05-17T15:04:30.671Z,6.45
2019-05-17T15:06:38.423Z,4.80
2019-05-17T15:08:46.465Z,4.92
2019-05-17T15:10:55.239Z,5.40
2019-05-17T15:13:04.432Z,4.58
2019-05-17T15:15:13.713Z,7.12
2019-05-17T15:17:22.237Z,4.95
2019-05-17T15:19:30.448Z,4.15
2019-05-17T15:21:38.532Z,6.35
2019-05-17T15:23:46.777Z,5.33
2019-05-17T15:25:54.414Z,5.03
2019-05-17T15:28:02.136Z,8.90
2019-05-17T15:30:11.690Z,6.35
2019-05-17T15:32:19.394Z,7.12
2019-05-17T15:34:27.024Z,9.63
2019-05-17T15:36:34.699Z,5.10
2019-05-17T15:38:42.706Z,6.72
2019-05-17T15:40:50.454Z,5.37
2019-05-17T15:42:58.008Z,3.77
2019-05-17T15:45:07.054Z,5.78
2019-05-17T15:47:14.657Z,5.55
2019-05-17T15:49:22.117Z,7.10
2019-05-17T15:51:29.686Z,5.87
2019-05-17T15:53:37.244Z,10.40
2019-05-17T15:55:44.736Z,7.30
2019-05-17T15:57:52.522Z,6.92
2019-05-17T16:00:00.086Z,7.83
2019-05-17T16:02:07.750Z,6.37
2019-05-17T16:04:15.493Z,6.30
2019-05-17T16:06:23.446Z,6.17
2019-05-17T16:08:31.059Z,8.75
2019-05-17T16:10:38.852Z,4.20
2019-05-17T16:13:00.977Z,7.47
2019-05-17T16:14:56.847Z,5.53
2019-05-17T16:17:04.568Z,4.92
2019-05-17T16:19:13.208Z,5.75
2019-05-17T16:21:21.179Z,5.55
2019-05-17T16:23:29.171Z,8.83
2019-05-17T16:25:38.159Z,7.28
2019-05-17T16:27:46.444Z,4.80
2019-05-17T16:29:54.416Z,5.60
2019-05-17T16:32:03.146Z,6.80
2019-05-17T16:34:11.729Z,8.48
2019-05-17T16:36:20.194Z,7.37
2019-05-17T16:38:27.915Z,6.55
2019-05-17T16:40:35.633Z,6.58
2019-05-17T16:42:43.172Z,4.78
2019-05-17T16:44:50.935Z,5.62
2019-05-17T16:46:59.723Z,7.15
2019-05-17T16:49:07.637Z,7.15
2019-05-17T16:51:15.434Z,6.05
2019-05-17T16:53:22.961Z,6.58
2019-05-17T16:55:30.630Z,8.23
2019-05-17T16:57:39.359Z,8.40
2019-05-17T16:59:48.401Z,8.55
2019-05-17T17:01:56.293Z,10.25
2019-05-17T17:04:04.663Z,9.50
2019-05-17T17:06:12.963Z,8.03
2019-05-17T17:08:21.739Z,6.70
2019-05-17T17:10:29.594Z,5.87
2019-05-17T17:12:37.214Z,5.62
2019-05-17T17:14:44.874Z,7.47
2019-05-17T17:16:52.401Z,7.50
2019-05-17T17:19:00.899Z,7.17
2019-05-17T17:21:09.361Z,6.85
2019-05-17T17:23:17.309Z,8.05
2019-05-17T17:25:25.387Z,12.23
2019-05-17T17:27:33.362Z,7.53
2019-05-17T17:29:41.494Z,8.23
2019-05-17T17:31:49.597Z,6.85
2019-05-17T17:33:58.358Z,8.95
2019-05-17T17:36:06.451Z,8.43
2019-05-17T17:38:14.265Z,7.58
2019-05-17T17:40:25.642Z,7.80
2019-05-17T17:42:33.283Z,8.63
2019-05-17T17:44:41.018Z,7.15
2019-05-17T17:46:49.324Z,7.80
2019-05-17T17:48:57.203Z,12.58
2019-05-17T17:51:05.096Z,14.40
2019-05-17T17:53:13.159Z,13.43
2019-05-17T17:55:21.509Z,14.23
2019-05-17T17:57:29.933Z,13.80
2019-05-17T17:59:37.941Z,14.40
2019-05-17T18:01:45.943Z,13.32
2019-05-17T18:03:54.110Z,40.15
2019-05-17T18:06:02.460Z,41.93
2019-05-17T18:08:12.968Z,39.67
2019-05-17T18:10:34.424Z,30.45
2019-05-17T18:12:42.656Z,28.50
2019-05-17T18:14:50.550Z,32.27
2019-05-17T18:16:58.462Z,39.48
2019-05-17T18:19:06.807Z,28.20
2019-05-17T18:21:14.915Z,30.45
2019-05-17T18:23:23.665Z,23.00
2019-05-17T18:25:31.514Z,18.37
2019-05-17T18:27:39.124Z,18.12
2019-05-17T18:29:46.900Z,19.23
2019-05-17T18:31:54.766Z,21.40
2019-05-17T18:34:04.936Z,16.53
2019-05-17T18:36:12.679Z,16.12
2019-05-17T18:38:24.340Z,21.63
2019-05-17T18:40:32.108Z,24.82
2019-05-17T18:42:39.849Z,20.70
2019-05-17T18:44:48.096Z,18.10
2019-05-17T18:46:56.110Z,18.75
2019-05-17T18:49:04.203Z,19.60
2019-05-17T18:51:11.964Z,15.80
2019-05-17T18:53:20.346Z,17.80
2019-05-17T18:55:28.195Z,15.90
2019-05-17T18:57:35.971Z,15.87
2019-05-17T18:59:43.697Z,13.67
2019-05-17T19:01:51.805Z,15.30
2019-05-17T19:04:01.556Z,16.55
2019-05-17T19:06:09.222Z,19.02
2019-05-17T19:08:17.215Z,15.30
2019-05-17T19:10:25.140Z,13.97
2019-05-17T19:12:32.750Z,12.47
2019-05-17T19:14:42.906Z,13.17
2019-05-17T19:16:50.008Z,13.50
2019-05-17T19:18:57.895Z,15.45
2019-05-17T19:21:08.164Z,15.72
2019-05-17T19:23:16.328Z,12.27
2019-05-17T19:25:24.795Z,14.10
2019-05-17T19:27:33.443Z,15.83
2019-05-17T19:29:43.230Z,16.17
2019-05-17T19:31:50.587Z,17.80
2019-05-17T19:33:58.659Z,17.17
2019-05-17T19:36:06.719Z,13.57
2019-05-17T19:38:14.348Z,14.30
2019-05-17T19:40:22.468Z,17.67
2019-05-17T19:42:30.292Z,14.58
2019-05-17T19:44:38.744Z,16.02
2019-05-17T19:46:46.434Z,15.30
2019-05-17T19:48:54.132Z,15.98
2019-05-17T19:51:01.652Z,14.50
2019-05-17T19:53:09.215Z,16.00
2019-05-17T19:55:17.391Z,14.90
2019-05-17T19:57:25.035Z,20.37
2019-05-17T19:59:32.637Z,19.55
2019-05-17T20:01:40.562Z,29.77
2019-05-17T20:03:48.066Z,27.17
2019-05-17T20:05:55.601Z,28.90
2019-05-17T20:08:03.898Z,27.32
2019-05-17T20:10:12.417Z,23.60
2019-05-17T20:12:20.840Z,20.00
2019-05-17T20:14:29.009Z,18.47
2019-05-17T20:16:37.073Z,22.00
2019-05-17T20:18:45.582Z,22.03
2019-05-17T20:20:53.250Z,18.87
2019-05-17T20:23:00.814Z,22.73
2019-05-17T20:25:09.186Z,23.10
2019-05-17T20:27:16.747Z,21.80
2019-05-17T20:29:24.259Z,26.20
2019-05-17T20:31:31.997Z,20.63
2019-05-17T20:33:39.565Z,21.20
2019-05-17T20:35:47.239Z,19.03
2019-05-17T20:37:54.779Z,18.23
2019-05-17T20:40:02.482Z,22.80
2019-05-17T20:42:10.539Z,22.80
2019-05-17T20:44:19.028Z,26.43
2019-05-17T20:46:26.803Z,24.23
2019-05-17T20:48:36.186Z,24.20
2019-05-17T20:50:44.379Z,28.77
2019-05-17T20:52:52.546Z,29.70
2019-05-17T20:55:00.575Z,29.97
2019-05-17T20:57:08.778Z,27.47
2019-05-17T20:59:16.646Z,28.87
2019-05-17T21:01:25.148Z,33.88
2019-05-17T21:03:33.068Z,27.53
2019-05-17T21:05:40.664Z,26.57
2019-05-17T21:07:50.668Z,27.80
2019-05-17T21:09:58.296Z,24.23
2019-05-17T21:12:06.143Z,23.50
2019-05-17T21:14:13.670Z,23.17
2019-05-17T21:16:21.321Z,24.03
2019-05-17T21:18:28.795Z,24.23
2019-05-17T21:20:36.404Z,25.07
2019-05-17T21:22:44.230Z,23.23
2019-05-17T21:24:51.698Z,20.87
2019-05-17T21:26:59.210Z,20.40
2019-05-17T21:29:06.959Z,22.80
2019-05-17T21:31:14.426Z,21.33
2019-05-17T21:33:21.916Z,22.77
2019-05-17T21:35:29.372Z,26.53
2019-05-17T21:37:37.014Z,21.67
2019-05-17T21:39:44.794Z,19.87
2019-05-17T21:41:52.445Z,19.40
2019-05-17T21:44:00.061Z,20.03
2019-05-17T21:46:07.604Z,21.03
2019-05-17T21:48:15.146Z,19.57
2019-05-17T21:50:22.818Z,20.97
2019-05-17T21:52:30.664Z,21.70
2019-05-17T21:54:38.226Z,19.20
2019-05-17T21:56:45.857Z,23.40
2019-05-17T21:58:53.298Z,19.43
2019-05-17T22:01:20.162Z,20.47
2019-05-17T22:03:27.760Z,20.90
2019-05-17T22:05:35.304Z,20.80
2019-05-17T22:07:42.971Z,20.47
2019-05-17T22:09:50.792Z,20.43
2019-05-17T22:12:01.307Z,20.73
2019-05-17T22:14:09.032Z,21.33
2019-05-17T22:16:19.969Z,22.40
2019-05-17T22:18:26.030Z,19.23
2019-05-17T22:20:33.656Z,20.90
2019-05-17T22:22:42.040Z,19.93
2019-05-17T22:24:49.627Z,24.63
2019-05-17T22:26:57.055Z,17.43
2019-05-17T22:29:05.184Z,19.77
2019-05-17T22:31:12.660Z,22.23
2019-05-17T22:33:20.169Z,20.93
2019-05-17T22:35:27.658Z,20.20
2019-05-17T22:37:35.134Z,19.90
2019-05-17T22:39:42.512Z,23.77
2019-05-17T22:41:49.993Z,19.73
2019-05-17T22:43:57.457Z,24.20
2019-05-17T22:46:04.859Z,18.13
2019-05-17T22:48:12.341Z,21.77
2019-05-17T22:50:19.820Z,21.03
2019-05-17T22:52:27.337Z,21.70
2019-05-17T22:54:35.207Z,20.50
2019-05-17T22:56:42.594Z,21.13
2019-05-17T22:58:50.082Z,27.17
2019-05-17T23:00:57.611Z,22.07
2019-05-17T23:03:05.066Z,23.70
2019-05-17T23:05:12.846Z,21.67
2019-05-17T23:07:20.402Z,23.10
2019-05-17T23:09:27.855Z,23.33
2019-05-17T23:11:35.353Z,22.93
2019-05-17T23:13:42.952Z,28.63
2019-05-17T23:16:03.547Z,22.80
2019-05-17T23:18:11.054Z,23.43
2019-05-17T23:20:19.877Z,22.93
2019-05-17T23:22:27.431Z,20.23
2019-05-17T23:24:34.980Z,21.27
2019-05-17T23:26:42.381Z,21.53
2019-05-17T23:28:49.854Z,29.63
2019-05-17T23:30:57.270Z,24.20
2019-05-17T23:33:04.996Z,25.90
2019-05-17T23:35:13.521Z,24.27
2019-05-17T23:37:20.936Z,23.37
2019-05-17T23:39:28.485Z,21.53
2019-05-17T23:41:35.898Z,23.50
2019-05-17T23:43:43.357Z,21.13
2019-05-17T23:45:50.824Z,24.17
2019-05-17T23:47:58.169Z,20.83
2019-05-17T23:50:06.433Z,24.77
2019-05-17T23:52:13.869Z,24.67
2019-05-17T23:54:21.371Z,23.87
2019-05-17T23:56:28.794Z,26.10
2019-05-17T23:58:36.243Z,28.33
